Time;durP1;ratioP1;P1;durP2;ratioP2;P2;SDS_P1;SDS_P2;PMS_P1;PMS_P2;Temp;Humidity;BMP_temperature;BMP_pressure;BME280_temperature;BME280_humidity;BME280_pressure;Samples;Min_cycle;Max_cycle;Signal;HPM_P1;HPM_P2
2022/04/13 00:02:05;;;;;;;10.53;9.73;;;16.20;56.10;;;;;;5113436;28;20538;-56
2022/04/13 00:04:33;;;;;;;10.23;9.43;;;16.20;56.10;;;;;;5113503;28;20473;-57
2022/04/13 00:07:00;;;;;;;11.40;10.33;;;16.20;56.20;;;;;;5113540;28;20496;-56
2022/04/13 00:09:27;;;;;;;10.73;9.90;;;16.30;56.00;;;;;;5113469;28;20484;-56
2022/04/13 00:11:55;;;;;;;10.47;9.47;;;16.30;55.80;;;;;;5113463;28;20955;-57
2022/04/13 00:14:23;;;;;;;10.93;9.90;;;16.40;55.50;;;;;;5111962;28;20449;-56
2022/04/13 00:16:50;;;;;;;10.30;9.50;;;16.40;55.20;;;;;;5113276;28;20449;-56
2022/04/13 00:19:17;;;;;;;10.33;9.53;;;16.30;55.40;;;;;;5113296;28;20534;-57
2022/04/13 00:21:45;;;;;;;9.80;9.10;;;16.30;55.30;;;;;;5113521;28;20921;-56
2022/04/13 00:24:13;;;;;;;10.30;9.43;;;16.30;55.20;;;;;;5113409;28;21000;-57
2022/04/13 00:26:40;;;;;;;10.03;9.20;;;16.30;55.20;;;;;;5113215;28;20503;-56
2022/04/13 00:29:07;;;;;;;9.80;9.10;;;16.30;55.30;;;;;;5111740;28;20467;-56
2022/04/13 00:31:34;;;;;;;10.10;9.30;;;16.30;55.20;;;;;;5113086;28;20453;-56
2022/04/13 00:34:01;;;;;;;9.50;8.80;;;16.30;55.20;;;;;;5113141;28;20473;-56
2022/04/13 00:36:27;;;;;;;9.63;8.93;;;16.30;55.20;;;;;;5113239;28;20524;-57
2022/04/13 00:38:56;;;;;;;9.67;9.00;;;16.40;55.30;;;;;;5113101;28;20904;-56
2022/04/13 00:41:22;;;;;;;9.87;9.17;;;16.50;55.10;;;;;;5113081;28;20529;-56
2022/04/13 00:44:06;;;;;;;9.93;9.13;;;16.50;54.90;;;;;;5111955;28;20904;-57
2022/04/13 00:46:33;;;;;;;10.10;9.40;;;16.50;54.80;;;;;;5113100;28;20448;-57
2022/04/13 00:49:01;;;;;;;10.20;9.40;;;16.40;54.80;;;;;;5112998;28;20455;-56
2022/04/13 00:51:28;;;;;;;10.03;9.33;;;16.40;54.80;;;;;;5113170;28;20443;-56
2022/04/13 00:53:59;;;;;;;8.90;8.40;;;16.30;54.70;;;;;;5112991;28;20477;-57
2022/04/13 00:56:28;;;;;;;9.43;8.73;;;16.30;55.00;;;;;;5112937;28;20807;-56
2022/04/13 00:59:01;;;;;;;9.70;9.00;;;16.10;55.50;;;;;;5111753;28;20441;-57
2022/04/13 01:01:28;;;;;;;9.27;8.67;;;15.90;56.10;;;;;;5112957;28;20445;-56
2022/04/13 01:03:56;;;;;;;10.13;9.30;;;15.70;56.60;;;;;;5112791;28;20940;-56
2022/04/13 01:06:24;;;;;;;9.70;9.00;;;15.70;56.50;;;;;;5112787;28;20452;-56
2022/04/13 01:08:51;;;;;;;9.80;9.10;;;15.90;56.20;;;;;;5112946;28;20449;-57
2022/04/13 01:11:20;;;;;;;9.63;8.93;;;16.00;55.90;;;;;;5112835;28;20496;-57
2022/04/13 01:13:47;;;;;;;9.30;8.80;;;16.00;55.60;;;;;;5111593;28;20449;-57
2022/04/13 01:16:16;;;;;;;10.40;9.70;;;16.00;55.60;;;;;;5112751;28;20536;-56
2022/04/13 01:18:43;;;;;;;10.87;10.07;;;15.90;56.00;;;;;;5112752;28;20453;-57
2022/04/13 01:21:13;;;;;;;10.50;9.63;;;15.90;56.50;;;;;;5092439;28;20474;-57
2022/04/13 01:23:41;;;;;;;10.10;9.30;;;15.80;56.80;;;;;;5092445;28;20450;-57
2022/04/13 01:26:11;;;;;;;11.30;10.20;;;15.60;57.30;;;;;;5092385;28;20485;-56
2022/04/13 01:28:38;;;;;;;10.27;9.57;;;15.50;57.90;;;;;;5091044;28;20442;-57
2022/04/13 01:31:05;;;;;;;10.50;9.80;;;15.40;58.30;;;;;;5092134;28;20502;-57
2022/04/13 01:33:32;;;;;;;9.60;8.90;;;15.20;58.90;;;;;;5092063;28;20456;-56
2022/04/13 01:36:01;;;;;;;10.83;9.93;;;15.00;60.00;;;;;;5092382;28;20468;-56
2022/04/13 01:38:28;;;;;;;10.70;9.90;;;14.70;60.60;;;;;;5092348;28;20465;-56
2022/04/13 01:40:57;;;;;;;10.40;9.53;;;14.60;61.20;;;;;;5092330;28;20445;-57
2022/04/13 01:43:24;;;;;;;10.77;9.90;;;14.50;61.20;;;;;;5090984;28;20489;-56
2022/04/13 01:45:53;;;;;;;10.97;10.17;;;14.60;60.80;;;;;;5095549;28;21000;-55
2022/04/13 01:48:20;;;;;;;10.80;10.00;;;14.60;60.60;;;;;;5095542;28;20450;-55
2022/04/13 01:50:47;;;;;;;11.83;10.73;;;14.70;60.10;;;;;;5095755;28;20492;-56
2022/04/13 01:53:14;;;;;;;11.17;10.37;;;14.80;59.80;;;;;;5095901;28;20470;-55
2022/04/13 01:55:40;;;;;;;10.83;9.93;;;14.80;60.00;;;;;;5095658;28;20951;-55
2022/04/13 01:58:09;;;;;;;10.83;9.93;;;14.80;60.00;;;;;;5094424;28;20537;-55
2022/04/13 02:00:36;;;;;;;10.50;9.80;;;14.70;60.50;;;;;;5095412;28;20447;-55
2022/04/13 02:03:03;;;;;;;11.20;10.40;;;14.80;60.20;;;;;;5095352;28;20549;-55
2022/04/13 02:05:30;;;;;;;11.37;10.40;;;14.80;59.70;;;;;;5095595;28;20442;-55
2022/04/13 02:07:57;;;;;;;11.73;10.60;;;14.90;58.70;;;;;;5095525;28;20780;-55
2022/04/13 02:10:24;;;;;;;10.73;9.97;;;14.90;58.50;;;;;;5095291;28;20563;-55
2022/04/13 02:12:51;;;;;;;11.00;10.10;;;14.90;58.60;;;;;;5093966;28;20871;-55
2022/04/13 02:15:20;;;;;;;10.93;10.03;;;15.00;58.60;;;;;;5095152;28;20474;-55
2022/04/13 02:17:47;;;;;;;10.37;9.67;;;15.00;58.50;;;;;;5095125;28;20457;-55
2022/04/13 02:20:14;;;;;;;11.23;10.33;;;15.10;58.30;;;;;;5107609;28;20484;-55
2022/04/13 02:22:41;;;;;;;10.93;10.13;;;15.10;58.20;;;;;;5115513;28;20970;-55
2022/04/13 02:25:09;;;;;;;10.73;9.97;;;15.20;58.30;;;;;;5115479;28;20449;-55
2022/04/13 02:27:35;;;;;;;10.23;9.50;;;15.30;58.20;;;;;;5114615;28;20451;-55
2022/04/13 02:30:03;;;;;;;10.50;9.83;;;15.30;58.10;;;;;;5115169;28;20491;-55
2022/04/13 02:32:31;;;;;;;11.40;10.27;;;15.40;58.10;;;;;;5115231;28;20445;-55
2022/04/13 02:34:58;;;;;;;10.90;10.00;;;15.50;58.00;;;;;;5115523;28;20524;-55
2022/04/13 02:37:25;;;;;;;11.20;10.17;;;15.50;58.00;;;;;;5115236;28;20451;-55
2022/04/13 02:39:51;;;;;;;10.60;10.00;;;15.50;57.80;;;;;;5115294;28;20455;-56
2022/04/13 02:42:18;;;;;;;10.80;9.90;;;15.50;57.80;;;;;;5115139;28;20862;-55
2022/04/13 02:44:45;;;;;;;11.80;10.70;;;15.60;58.00;;;;;;5113725;28;20450;-55
2022/04/13 02:47:12;;;;;;;10.23;9.33;;;15.70;57.90;;;;;;5114939;28;20473;-55
2022/04/13 02:49:41;;;;;;;11.20;10.23;;;15.80;58.20;;;;;;5114939;28;20536;-55
2022/04/13 02:52:08;;;;;;;10.70;9.97;;;15.90;57.80;;;;;;5114972;28;20920;-55
2022/04/13 02:54:35;;;;;;;11.77;10.93;;;15.90;57.80;;;;;;5115026;28;20450;-56
2022/04/13 02:57:02;;;;;;;11.33;10.43;;;15.80;58.50;;;;;;5114744;28;20473;-55
2022/04/13 02:59:29;;;;;;;11.70;11.00;;;15.80;58.50;;;;;;5113679;28;20452;-55
2022/04/13 03:01:56;;;;;;;10.60;9.90;;;15.90;58.50;;;;;;5114625;28;20896;-55
2022/04/13 03:04:22;;;;;;;11.00;10.10;;;15.90;58.80;;;;;;5114576;28;20473;-55
2022/04/13 03:06:51;;;;;;;12.13;11.27;;;15.80;58.50;;;;;;5114619;28;20999;-55
2022/04/13 03:09:17;;;;;;;10.10;9.20;;;15.90;58.10;;;;;;5114561;28;20967;-55
2022/04/13 03:11:44;;;;;;;11.27;10.43;;;16.00;57.70;;;;;;5114345;28;21003;-55
2022/04/13 03:14:11;;;;;;;11.30;10.50;;;15.90;57.30;;;;;;5113431;28;20455;-55
2022/04/13 03:16:38;;;;;;;11.10;10.30;;;15.80;57.10;;;;;;5114571;28;20483;-56
2022/04/13 03:19:05;;;;;;;10.77;9.97;;;15.70;57.40;;;;;;5114131;28;20484;-55
2022/04/13 03:21:32;;;;;;;11.03;10.23;;;15.60;57.40;;;;;;5114264;28;20821;-55
2022/04/13 03:24:00;;;;;;;12.10;11.17;;;15.50;57.80;;;;;;5114275;28;20475;-56
2022/04/13 03:26:27;;;;;;;11.37;10.47;;;15.50;58.00;;;;;;5114213;28;20747;-55
2022/04/13 03:28:54;;;;;;;10.33;9.50;;;15.40;58.00;;;;;;5113023;28;20471;-56
2022/04/13 03:31:22;;;;;;;12.00;11.00;;;15.40;58.50;;;;;;5114127;28;20493;-55
2022/04/13 03:33:49;;;;;;;10.50;9.63;;;15.20;58.80;;;;;;5114066;28;20524;-55
2022/04/13 03:36:17;;;;;;;12.23;11.23;;;15.20;58.90;;;;;;5114070;28;20492;-55
2022/04/13 03:38:44;;;;;;;10.80;10.10;;;15.20;59.10;;;;;;5113856;28;20468;-55
2022/04/13 03:41:15;;;;;;;10.57;9.57;;;15.20;59.60;;;;;;5113999;28;20443;-57
2022/04/13 03:43:41;;;;;;;11.43;10.57;;;15.20;59.00;;;;;;5112640;28;20532;-55
2022/04/13 03:46:08;;;;;;;11.60;10.70;;;15.30;58.90;;;;;;5113970;28;20461;-56
2022/04/13 03:48:35;;;;;;;11.97;11.10;;;15.30;58.80;;;;;;5113717;28;20524;-55
2022/04/13 03:51:02;;;;;;;12.17;11.20;;;15.40;59.00;;;;;;5113724;28;21054;-55
2022/04/13 03:53:29;;;;;;;12.57;11.67;;;15.40;59.10;;;;;;5113742;28;20459;-55
2022/04/13 03:55:56;;;;;;;13.23;12.13;;;15.40;59.30;;;;;;5113774;28;20442;-55
2022/04/13 03:58:25;;;;;;;13.10;12.00;;;15.30;59.10;;;;;;5112388;28;20449;-55
2022/04/13 04:00:52;;;;;;;11.60;10.80;;;15.20;59.10;;;;;;5113659;28;20481;-55
2022/04/13 04:03:19;;;;;;;11.83;11.03;;;15.10;59.60;;;;;;5113445;28;20484;-55
2022/04/13 04:05:46;;;;;;;11.23;10.30;;;15.10;59.70;;;;;;5113527;28;20449;-55
2022/04/13 04:08:13;;;;;;;11.30;10.50;;;15.10;59.80;;;;;;5113083;28;20450;-55
2022/04/13 04:10:40;;;;;;;11.67;10.77;;;15.00;59.80;;;;;;5113411;28;21012;-55
2022/04/13 04:13:06;;;;;;;12.93;11.83;;;15.10;59.60;;;;;;5112132;28;20456;-55
2022/04/13 04:15:35;;;;;;;12.57;11.57;;;15.10;59.40;;;;;;5113446;28;20469;-55
2022/04/13 04:18:01;;;;;;;13.13;12.23;;;15.10;59.30;;;;;;5113305;28;20532;-55
2022/04/13 04:20:28;;;;;;;11.37;9.93;;;15.20;59.40;;;;;;5113121;28;20483;-55
2022/04/13 04:22:56;;;;;;;10.88;10.18;;;15.20;59.30;;;;;;5113351;28;20910;-55
2022/04/13 04:25:23;;;;;;;10.53;9.53;;;15.30;60.20;;;;;;5113174;28;20202;-55
2022/04/13 04:27:49;;;;;;;10.38;9.35;;;15.30;60.20;;;;;;5111971;28;20520;-55
2022/04/13 04:30:16;;;;;;;11.43;10.50;;;15.40;60.30;;;;;;5113045;28;20731;-55
2022/04/13 04:32:44;;;;;;;11.20;10.40;;;15.40;60.20;;;;;;5113044;28;20452;-55
2022/04/13 04:35:11;;;;;;;11.33;10.43;;;15.40;60.00;;;;;;5113073;28;20448;-55
2022/04/13 04:37:38;;;;;;;10.83;10.13;;;15.50;59.50;;;;;;5113233;28;20540;-55
2022/04/13 04:40:07;;;;;;;13.23;12.07;;;15.50;59.00;;;;;;5113162;28;20455;-55
2022/04/13 04:42:45;;;;;;;11.67;10.87;;;15.60;58.90;;;;;;5112523;28;20944;-54
2022/04/13 04:45:13;;;;;;;12.13;11.23;;;15.60;59.40;;;;;;5113129;28;20445;-55
2022/04/13 04:47:40;;;;;;;12.27;11.27;;;15.60;59.00;;;;;;5112733;28;20994;-55
2022/04/13 04:50:09;;;;;;;11.03;10.23;;;15.60;58.80;;;;;;5113142;28;20455;-54
2022/04/13 04:52:40;;;;;;;11.30;10.50;;;15.60;58.90;;;;;;5113004;28;20572;-55
2022/04/13 04:55:08;;;;;;;12.90;12.00;;;15.70;59.20;;;;;;5113024;28;20455;-54
2022/04/13 04:57:35;;;;;;;11.70;10.90;;;15.70;59.20;;;;;;5112133;28;20492;-54
2022/04/13 05:00:02;;;;;;;11.77;10.67;;;15.70;59.20;;;;;;5112668;28;20527;-55
2022/04/13 05:02:29;;;;;;;11.80;11.00;;;15.70;59.00;;;;;;5113050;28;20773;-55
2022/04/13 05:04:56;;;;;;;10.63;9.90;;;15.80;58.70;;;;;;5112846;28;20456;-55
2022/04/13 05:07:24;;;;;;;12.97;11.63;;;15.80;58.50;;;;;;5112851;28;20479;-54
2022/04/13 05:09:51;;;;;;;9.07;8.13;;;15.80;58.20;;;;;;5112948;28;20984;-54
2022/04/13 05:12:18;;;;;;;11.63;10.83;;;15.80;58.60;;;;;;5112768;28;20584;-55
2022/04/13 05:14:45;;;;;;;11.57;10.87;;;15.90;58.50;;;;;;5111402;28;20459;-55
2022/04/13 05:17:12;;;;;;;12.50;11.63;;;16.00;57.80;;;;;;5112870;28;20454;-54
2022/04/13 05:19:38;;;;;;;10.17;9.43;;;16.00;57.20;;;;;;5114170;28;20568;-55
2022/04/13 05:22:05;;;;;;;8.90;8.40;;;16.00;57.20;;;;;;5116536;28;20463;-55
2022/04/13 05:24:33;;;;;;;9.53;8.93;;;16.10;56.30;;;;;;5116463;28;20547;-55
2022/04/13 05:27:00;;;;;;;9.40;9.00;;;16.20;56.50;;;;;;5116473;28;20447;-55
2022/04/13 05:29:27;;;;;;;8.83;8.33;;;16.40;56.20;;;;;;5114971;28;20479;-55
2022/04/13 05:31:54;;;;;;;11.57;10.77;;;16.50;55.80;;;;;;5116391;28;20497;-55
2022/04/13 05:34:21;;;;;;;11.70;10.70;;;16.40;56.40;;;;;;5116191;28;20447;-54
2022/04/13 05:36:48;;;;;;;12.60;11.70;;;16.30;57.50;;;;;;5116353;28;20449;-56
2022/04/13 05:39:14;;;;;;;9.47;8.67;;;16.10;57.90;;;;;;5116327;28;21038;-56
2022/04/13 05:41:43;;;;;;;11.20;10.40;;;15.90;58.70;;;;;;5116114;28;20449;-55
2022/04/13 05:44:09;;;;;;;13.90;12.90;;;15.60;59.20;;;;;;5114826;28;20870;-55
2022/04/13 05:46:36;;;;;;;13.55;12.45;;;15.30;60.20;;;;;;5116175;28;20454;-56
2022/04/13 05:49:03;;;;;;;13.87;12.80;;;15.10;60.60;;;;;;5115998;28;20238;-57
2022/04/13 05:51:30;;;;;;;12.25;11.25;;;14.80;61.30;;;;;;5115992;28;20529;-54
2022/04/13 05:53:57;;;;;;;15.90;14.10;;;14.60;61.60;;;;;;5116047;28;20238;-57
2022/04/13 05:56:24;;;;;;;12.63;11.63;;;14.40;62.60;;;;;;5115848;28;20227;-57
2022/04/13 05:58:52;;;;;;;13.05;12.05;;;14.20;63.00;;;;;;5114604;28;20290;-55
2022/04/13 06:01:19;;;;;;;13.70;12.50;;;14.10;63.90;;;;;;5115778;28;20265;-57
2022/04/13 06:03:45;;;;;;;13.98;12.88;;;14.10;64.10;;;;;;5115716;28;20207;-57
2022/04/13 06:06:12;;;;;;;13.20;12.10;;;14.10;64.10;;;;;;5115795;28;20285;-57
2022/04/13 06:08:39;;;;;;;12.13;11.13;;;13.90;66.00;;;;;;5115862;28;20299;-56
2022/04/13 06:11:06;;;;;;;11.50;10.63;;;13.70;66.60;;;;;;5115660;28;20308;-57
2022/04/13 06:13:33;;;;;;;13.82;12.70;;;13.60;67.00;;;;;;5114376;28;20239;-57
2022/04/13 06:16:02;;;;;;;12.13;11.23;;;13.80;66.20;;;;;;5115575;28;20298;-56
2022/04/13 06:18:29;;;;;;;10.55;9.75;;;14.00;65.50;;;;;;5115466;28;20218;-57
2022/04/13 06:20:56;;;;;;;10.57;9.63;;;14.20;64.70;;;;;;5115368;28;20698;-56
2022/04/13 06:23:23;;;;;;;11.50;10.60;;;14.40;64.50;;;;;;5115466;28;20496;-56
2022/04/13 06:25:50;;;;;;;11.47;10.47;;;14.50;64.00;;;;;;5115339;28;20662;-56
2022/04/13 06:28:17;;;;;;;12.20;11.33;;;14.60;63.40;;;;;;5114049;28;20477;-57
2022/04/13 06:30:44;;;;;;;9.52;8.82;;;14.80;63.90;;;;;;5114780;28;20966;-57
2022/04/13 06:33:12;;;;;;;12.60;11.77;;;14.90;64.00;;;;;;5115058;28;20670;-57
2022/04/13 06:35:39;;;;;;;11.03;10.10;;;14.90;64.20;;;;;;5115295;28;20444;-56
2022/04/13 06:38:06;;;;;;;13.10;12.13;;;15.00;64.00;;;;;;5115068;28;20446;-56
2022/04/13 06:40:33;;;;;;;12.33;11.53;;;15.00;64.30;;;;;;5115191;28;20800;-56
2022/04/13 06:43:00;;;;;;;12.80;11.80;;;14.90;64.30;;;;;;5113831;28;20458;-56
2022/04/13 06:45:27;;;;;;;12.23;11.43;;;15.00;63.60;;;;;;5115199;28;20996;-56
2022/04/13 06:47:54;;;;;;;12.10;11.30;;;15.20;63.00;;;;;;5114822;28;21030;-55
2022/04/13 06:50:22;;;;;;;11.80;10.70;;;15.40;62.00;;;;;;5114937;28;20456;-55
2022/04/13 06:52:49;;;;;;;11.10;10.40;;;15.60;61.30;;;;;;5114640;28;21070;-56
2022/04/13 06:55:16;;;;;;;12.23;11.23;;;15.70;61.20;;;;;;5114798;28;20457;-56
2022/04/13 06:57:42;;;;;;;12.77;11.90;;;15.80;59.70;;;;;;5113557;28;20454;-56
2022/04/13 07:00:11;;;;;;;10.83;10.13;;;15.80;59.90;;;;;;5114646;28;20495;-55
2022/04/13 07:02:39;;;;;;;13.10;12.10;;;15.80;60.60;;;;;;5114803;28;20454;-56
2022/04/13 07:05:07;;;;;;;14.03;12.97;;;16.00;60.80;;;;;;5114603;28;20834;-56
2022/04/13 07:07:35;;;;;;;13.67;12.57;;;16.10;60.50;;;;;;5114554;28;20556;-56
2022/04/13 07:10:04;;;;;;;13.03;11.93;;;16.20;60.90;;;;;;5114720;28;20523;-56
2022/04/13 07:12:35;;;;;;;12.90;11.90;;;16.30;60.60;;;;;;5114431;28;20907;-56
2022/04/13 07:15:02;;;;;;;12.00;10.80;;;16.40;60.60;;;;;;5114160;28;20449;-56
2022/04/13 07:17:29;;;;;;;12.90;12.00;;;16.40;60.60;;;;;;5114464;28;20473;-56
2022/04/13 07:19:56;;;;;;;13.13;9.67;;;16.30;60.80;;;;;;5113802;28;20477;-56
2022/04/13 07:22:23;;;;;;;11.17;10.30;;;16.40;60.70;;;;;;5114122;28;20843;-56
2022/04/13 07:24:52;;;;;;;11.10;10.40;;;16.60;58.50;;;;;;5114292;28;20449;-56
2022/04/13 07:27:19;;;;;;;8.27;7.77;;;16.80;59.20;;;;;;5114161;28;20479;-55
2022/04/13 07:29:45;;;;;;;11.70;10.90;;;17.00;59.10;;;;;;5112652;28;20438;-56
2022/04/13 07:32:12;;;;;;;10.83;10.10;;;17.20;59.10;;;;;;5113970;28;20489;-55
2022/04/13 07:34:39;;;;;;;10.70;10.10;;;17.40;59.10;;;;;;5113940;28;20450;-55
2022/04/13 07:37:06;;;;;;;10.97;10.37;;;17.60;59.10;;;;;;5113987;28;20457;-54
2022/04/13 07:39:34;;;;;;;9.43;8.87;;;17.70;59.00;;;;;;5114045;28;20544;-54
2022/04/13 07:42:02;;;;;;;10.93;10.23;;;17.90;58.80;;;;;;5113220;28;20946;-57
2022/04/13 07:44:29;;;;;;;10.13;9.50;;;18.00;58.20;;;;;;5112606;28;20445;-56
2022/04/13 07:46:56;;;;;;;11.37;10.67;;;18.10;57.40;;;;;;5113645;28;20455;-56
2022/04/13 07:49:23;;;;;;;10.90;10.20;;;18.10;55.50;;;;;;5113752;28;20532;-54
2022/04/13 07:51:50;;;;;;;8.07;7.63;;;18.10;53.80;;;;;;5113717;28;20485;-57
2022/04/13 07:54:17;;;;;;;9.17;8.50;;;18.20;53.00;;;;;;5113667;28;20538;-54
2022/04/13 07:56:43;;;;;;;8.80;8.30;;;18.20;52.30;;;;;;5113702;28;20449;-56
2022/04/13 07:59:12;;;;;;;9.63;9.13;;;18.30;51.00;;;;;;5112451;28;20532;-56
2022/04/13 08:01:38;;;;;;;10.20;9.60;;;18.40;51.40;;;;;;5113448;28;20811;-56
2022/04/13 08:04:06;;;;;;;10.40;9.80;;;18.40;51.50;;;;;;5113448;28;20550;-55
2022/04/13 08:06:33;;;;;;;11.20;10.50;;;18.50;50.60;;;;;;5113550;28;20516;-56
2022/04/13 08:09:00;;;;;;;10.60;10.00;;;18.60;49.90;;;;;;5113407;28;20540;-56
2022/04/13 08:11:26;;;;;;;8.80;8.23;;;18.60;50.20;;;;;;5113378;28;20521;-54
2022/04/13 08:13:53;;;;;;;9.13;8.53;;;18.70;50.50;;;;;;5112204;28;20445;-56
2022/04/13 08:16:21;;;;;;;9.17;8.53;;;18.70;51.40;;;;;;5113288;28;20445;-56
2022/04/13 08:18:48;;;;;;;10.30;9.80;;;18.80;50.60;;;;;;5113142;28;21010;-56
2022/04/13 08:21:15;;;;;;;10.13;9.53;;;18.80;50.60;;;;;;5113314;28;20452;-56
2022/04/13 08:23:42;;;;;;;9.80;9.13;;;18.90;50.70;;;;;;5113231;28;20463;-57
2022/04/13 08:26:09;;;;;;;11.03;10.03;;;18.90;50.40;;;;;;5113154;28;20549;-56
2022/04/13 08:28:36;;;;;;;11.17;10.37;;;18.90;49.70;;;;;;5111931;28;20959;-56
2022/04/13 08:31:04;;;;;;;9.90;9.40;;;19.00;48.40;;;;;;5113204;28;20869;-56
2022/04/13 08:33:32;;;;;;;9.73;9.13;;;19.00;49.00;;;;;;5112985;28;20499;-55
2022/04/13 08:35:59;;;;;;;11.43;10.73;;;18.90;47.90;;;;;;5113120;28;21129;-56
2022/04/13 08:38:26;;;;;;;12.13;11.33;;;19.00;49.20;;;;;;5113144;28;20453;-55
2022/04/13 08:40:58;;;;;;;11.90;10.93;;;19.10;49.60;;;;;;5113119;28;20728;-56
2022/04/13 08:43:32;;;;;;;10.73;10.13;;;19.10;49.30;;;;;;5111570;28;20450;-56
2022/04/13 08:46:00;;;;;;;10.87;10.17;;;19.20;48.40;;;;;;5113167;28;20445;-56
2022/04/13 08:48:28;;;;;;;11.63;10.93;;;19.20;48.80;;;;;;5112972;28;20442;-57
2022/04/13 08:50:59;;;;;;;10.00;9.37;;;19.30;49.40;;;;;;5113146;28;20448;-56
2022/04/13 08:53:29;;;;;;;10.33;9.83;;;19.30;49.20;;;;;;5114302;28;20493;-56
2022/04/13 08:55:58;;;;;;;10.60;10.10;;;19.30;48.20;;;;;;5117050;28;20473;-56
2022/04/13 08:58:35;;;;;;;10.87;10.33;;;19.40;48.10;;;;;;5115809;28;20445;-57
2022/04/13 09:01:09;;;;;;;11.20;10.40;;;19.40;48.10;;;;;;5117062;28;20460;-56
2022/04/13 09:03:40;;;;;;;12.10;11.30;;;19.40;48.20;;;;;;5116913;28;20535;-56
2022/04/13 09:06:09;;;;;;;11.60;10.70;;;19.40;48.60;;;;;;5116953;28;20498;-57
2022/04/13 09:08:43;;;;;;;11.77;10.87;;;19.40;48.90;;;;;;5117031;28;20473;-57
2022/04/13 09:11:10;;;;;;;12.10;11.50;;;19.50;49.80;;;;;;5116962;28;20445;-56
2022/04/13 09:13:38;;;;;;;11.33;10.57;;;19.60;48.80;;;;;;5115608;28;20493;-56
2022/04/13 09:16:06;;;;;;;10.87;10.30;;;19.60;48.50;;;;;;5116703;28;20484;-57
2022/04/13 09:18:32;;;;;;;11.10;10.43;;;19.70;47.90;;;;;;5116489;28;20851;-57
2022/04/13 09:21:00;;;;;;;9.60;9.07;;;19.80;47.80;;;;;;5116577;28;20473;-57
2022/04/13 09:23:29;;;;;;;10.97;10.17;;;19.90;48.30;;;;;;5116619;28;20458;-57
2022/04/13 09:25:58;;;;;;;9.93;9.07;;;20.00;47.20;;;;;;5116545;28;20461;-57
2022/04/13 09:28:25;;;;;;;9.83;9.33;;;19.90;46.30;;;;;;5115183;28;20822;-56
2022/04/13 09:30:53;;;;;;;9.77;9.23;;;19.90;47.40;;;;;;5116303;28;20456;-57
2022/04/13 09:33:20;;;;;;;10.27;9.70;;;19.90;45.50;;;;;;5116352;28;20812;-56
2022/04/13 09:35:47;;;;;;;9.63;9.13;;;20.00;45.80;;;;;;5116354;28;20481;-56
2022/04/13 09:38:16;;;;;;;10.37;9.80;;;20.10;45.80;;;;;;5116378;28;20446;-56
2022/04/13 09:40:44;;;;;;;9.27;8.67;;;20.20;43.90;;;;;;5116263;28;20441;-56
2022/04/13 09:43:12;;;;;;;10.37;9.77;;;20.30;45.30;;;;;;5114905;28;20900;-55
2022/04/13 09:45:41;;;;;;;10.50;10.00;;;20.30;43.90;;;;;;5116246;28;20480;-56
2022/04/13 09:48:10;;;;;;;10.67;10.07;;;20.40;44.50;;;;;;5116096;28;20446;-55
2022/04/13 09:50:37;;;;;;;8.17;7.47;;;20.40;41.90;;;;;;5116012;28;20796;-56
2022/04/13 09:53:05;;;;;;;9.93;9.43;;;20.40;43.40;;;;;;5115971;28;20489;-56
2022/04/13 09:55:35;;;;;;;11.33;10.73;;;20.50;44.40;;;;;;5116143;28;20453;-56
2022/04/13 09:58:11;;;;;;;11.40;10.50;;;20.50;44.20;;;;;;5114721;28;20528;-56
2022/04/13 10:00:39;;;;;;;12.10;11.30;;;20.60;44.00;;;;;;5115691;28;20564;-56
2022/04/13 10:03:11;;;;;;;12.53;11.70;;;20.70;44.60;;;;;;5115888;28;20449;-55
2022/04/13 10:05:41;;;;;;;12.20;11.40;;;20.80;44.40;;;;;;5114821;28;20445;-56
2022/04/13 10:08:10;;;;;;;12.17;11.30;;;21.00;44.20;;;;;;5115768;28;20464;-56
2022/04/13 10:10:41;;;;;;;12.40;11.30;;;21.10;44.30;;;;;;5115992;28;20541;-56
2022/04/13 10:13:10;;;;;;;11.70;10.90;;;21.20;45.30;;;;;;5114010;28;20493;-56
2022/04/13 10:15:37;;;;;;;11.37;10.37;;;21.30;46.40;;;;;;5115591;28;20455;-57
2022/04/13 10:18:05;;;;;;;10.90;9.90;;;21.40;45.70;;;;;;5115597;28;20540;-55
2022/04/13 10:20:45;;;;;;;10.17;9.60;;;21.50;44.90;;;;;;5115213;28;20481;-56
2022/04/13 10:23:12;;;;;;;12.23;11.47;;;21.50;44.80;;;;;;5115455;28;20469;-57
2022/04/13 10:25:40;;;;;;;11.90;11.30;;;21.60;44.90;;;;;;5115105;28;20545;-56
2022/04/13 10:28:07;;;;;;;12.30;11.30;;;21.70;45.10;;;;;;5113976;28;20456;-55
2022/04/13 10:30:37;;;;;;;12.33;11.63;;;21.70;44.70;;;;;;5115460;28;20856;-55
2022/04/13 10:33:05;;;;;;;10.50;9.90;;;21.70;44.20;;;;;;5115069;28;20569;-56
2022/04/13 10:35:34;;;;;;;11.43;10.83;;;21.80;45.30;;;;;;5115094;28;20450;-57
2022/04/13 10:38:03;;;;;;;12.07;11.37;;;21.80;44.40;;;;;;5115048;28;20449;-56
2022/04/13 10:40:31;;;;;;;12.07;11.03;;;21.80;44.90;;;;;;5115269;28;20453;-56
2022/04/13 10:43:01;;;;;;;12.90;11.83;;;21.80;44.60;;;;;;5113636;28;20524;-56
2022/04/13 10:45:29;;;;;;;11.00;10.30;;;21.90;44.60;;;;;;5115210;28;20446;-56
2022/04/13 10:48:00;;;;;;;11.83;10.93;;;22.10;43.80;;;;;;5114955;28;20445;-55
2022/04/13 10:50:39;;;;;;;9.90;9.20;;;22.10;45.40;;;;;;5114732;28;20545;-57
2022/04/13 10:53:18;;;;;;;12.40;11.17;;;22.30;45.20;;;;;;5114752;28;20476;-56
2022/04/13 10:55:46;;;;;;;12.90;12.07;;;22.50;45.10;;;;;;5114913;28;20459;-56
2022/04/13 10:58:19;;;;;;;12.20;11.50;;;22.70;44.50;;;;;;5113559;28;20447;-57
2022/04/13 11:00:48;;;;;;;10.23;9.53;;;22.90;43.50;;;;;;5114590;28;20784;-56
2022/04/13 11:03:19;;;;;;;10.97;10.07;;;23.10;43.00;;;;;;5114550;28;20486;-57
2022/04/13 11:05:47;;;;;;;12.90;12.20;;;23.10;45.60;;;;;;5114495;28;20460;-56
2022/04/13 11:08:28;;;;;;;11.63;10.73;;;23.20;45.00;;;;;;5114608;28;21018;-57
2022/04/13 11:10:55;;;;;;;13.67;12.47;;;23.40;44.00;;;;;;5114630;28;20456;-55
2022/04/13 11:13:22;;;;;;;13.73;12.40;;;23.50;44.30;;;;;;5113165;28;20489;-55
2022/04/13 11:15:50;;;;;;;13.27;12.13;;;23.70;43.50;;;;;;5114252;28;20538;-56
2022/04/13 11:18:20;;;;;;;11.33;10.43;;;24.00;42.60;;;;;;5114605;28;20473;-57
2022/04/13 11:21:05;;;;;;;13.40;12.60;;;24.60;42.50;;;;;;5114004;28;20484;-57
2022/04/13 11:23:51;;;;;;;13.03;12.07;;;25.70;41.30;;;;;;5114272;28;20454;-56
2022/04/13 11:27:03;;;;;;;12.83;11.90;;;27.20;38.90;;;;;;5151901;27;20602;-56
2022/04/13 11:29:33;;;;;;;12.77;11.97;;;27.80;39.10;;;;;;5150420;27;20891;-56
2022/04/13 11:32:09;;;;;;;12.53;11.63;;;28.50;37.00;;;;;;5151810;27;20530;-56
2022/04/13 11:34:42;;;;;;;11.90;11.17;;;28.70;35.90;;;;;;5151530;27;20509;-56
2022/04/13 11:37:10;;;;;;;12.83;11.97;;;29.10;36.50;;;;;;5151696;27;20455;-57
2022/04/13 11:39:49;;;;;;;10.20;9.50;;;29.40;35.20;;;;;;5151664;27;20454;-57
2022/04/13 11:45:10;;;;;;;12.20;11.43;;;29.30;34.30;;;;;;5131259;27;21112;-55
2022/04/13 11:47:39;;;;;;;12.20;11.40;;;29.40;35.20;;;;;;5130983;27;20959;-55
2022/04/13 11:50:21;;;;;;;12.10;11.30;;;29.40;34.30;;;;;;5130944;28;20931;-56
2022/04/13 11:52:51;;;;;;;12.70;11.67;;;29.40;32.60;;;;;;5131037;27;20433;-56
2022/04/13 11:55:19;;;;;;;10.97;10.17;;;29.30;34.20;;;;;;5130835;27;21006;-56
2022/04/13 11:58:20;;;;;;;12.23;11.57;;;29.30;33.80;;;;;;5129728;27;20449;-56
2022/04/13 12:00:55;;;;;;;12.43;11.23;;;29.40;33.90;;;;;;5130809;28;20966;-55
2022/04/13 12:03:25;;;;;;;12.63;11.93;;;29.20;34.00;;;;;;5130736;28;20476;-57
2022/04/13 12:05:53;;;;;;;13.47;12.47;;;28.90;34.00;;;;;;5130528;28;20953;-56
2022/04/13 12:08:22;;;;;;;12.10;11.40;;;28.70;34.40;;;;;;5130725;28;20927;-56
2022/04/13 12:10:50;;;;;;;12.63;11.83;;;28.50;34.10;;;;;;5130649;27;20533;-56
2022/04/13 12:13:18;;;;;;;13.03;12.03;;;28.30;33.80;;;;;;5129338;28;20544;-55
2022/04/13 12:15:50;;;;;;;13.40;12.33;;;27.80;34.20;;;;;;5130596;27;20444;-56
2022/04/13 12:18:17;;;;;;;12.93;12.07;;;27.50;35.30;;;;;;5130372;28;20441;-56
2022/04/13 12:20:45;;;;;;;11.30;10.60;;;27.40;35.50;;;;;;5130228;27;20478;-55
2022/04/13 12:23:19;;;;;;;13.10;12.40;;;27.30;35.60;;;;;;5130357;27;20531;-58
2022/04/13 12:25:47;;;;;;;12.43;11.83;;;27.30;34.90;;;;;;5130295;28;20491;-56
2022/04/13 12:28:15;;;;;;;12.97;12.10;;;26.80;36.00;;;;;;5128972;27;20441;-56
2022/04/13 12:30:42;;;;;;;12.40;11.20;;;26.70;34.40;;;;;;5130240;27;20531;-56
2022/04/13 12:33:21;;;;;;;9.63;9.00;;;26.90;34.90;;;;;;5130249;27;20449;-55
2022/04/13 12:35:53;;;;;;;12.30;11.60;;;27.00;34.40;;;;;;5130073;27;20483;-55
2022/04/13 12:38:26;;;;;;;13.03;12.30;;;27.00;34.50;;;;;;5130265;27;20495;-58
2022/04/13 12:41:17;;;;;;;14.10;13.07;;;27.10;35.00;;;;;;5129946;27;20447;-58